createdAt,value
2017-05-15T00:01:36.228Z,18.88
2017-05-15T00:04:04.542Z,18.82
2017-05-15T00:06:33.635Z,18.38
2017-05-15T00:09:02.699Z,19.20
2017-05-15T00:11:31.174Z,19.55
2017-05-15T00:13:59.485Z,18.25
2017-05-15T00:16:28.543Z,17.77
2017-05-15T00:18:56.851Z,18.07
2017-05-15T00:21:25.162Z,16.45
2017-05-15T00:23:53.473Z,17.17
2017-05-15T00:26:21.790Z,15.70
2017-05-15T00:28:50.613Z,17.72
2017-05-15T00:31:18.917Z,15.37
2017-05-15T00:33:47.230Z,14.30
2017-05-15T00:36:15.540Z,14.48
2017-05-15T00:38:43.854Z,14.83
2017-05-15T00:41:12.206Z,14.52
2017-05-15T00:43:40.511Z,16.75
2017-05-15T00:46:09.225Z,15.50
2017-05-15T00:48:37.543Z,15.58
2017-05-15T00:51:06.137Z,15.18
2017-05-15T00:53:34.462Z,15.58
2017-05-15T00:56:02.778Z,15.15
2017-05-15T00:58:31.089Z,14.92
2017-05-15T01:00:59.401Z,15.30
2017-05-15T01:03:27.729Z,14.00
2017-05-15T01:05:56.036Z,15.43
2017-05-15T01:08:24.845Z,14.95
2017-05-15T01:10:53.161Z,15.97
2017-05-15T01:13:21.473Z,16.15
2017-05-15T01:15:49.988Z,16.00
2017-05-15T01:18:18.301Z,17.05
2017-05-15T01:20:46.615Z,16.70
2017-05-15T01:23:14.925Z,16.12
2017-05-15T01:25:43.233Z,14.65
2017-05-15T01:28:11.546Z,16.87
2017-05-15T01:30:39.855Z,16.32
2017-05-15T01:33:08.167Z,16.52
2017-05-15T01:35:36.478Z,16.65
2017-05-15T01:38:04.789Z,17.05
2017-05-15T01:40:33.102Z,16.97
2017-05-15T01:43:01.409Z,18.50
2017-05-15T01:45:29.761Z,15.65
2017-05-15T01:47:58.092Z,16.05
2017-05-15T01:50:26.450Z,16.05
2017-05-15T01:52:55.774Z,13.92
2017-05-15T01:55:24.309Z,15.42
2017-05-15T01:57:52.617Z,19.05
2017-05-15T02:00:20.926Z,15.88
2017-05-15T02:02:49.981Z,15.72
2017-05-15T02:05:18.293Z,14.98
2017-05-15T02:07:46.978Z,16.68
2017-05-15T02:10:15.293Z,15.80
2017-05-15T02:12:43.602Z,15.83
2017-05-15T02:15:11.913Z,15.82
2017-05-15T02:17:40.226Z,15.68
2017-05-15T02:20:09.283Z,15.98
2017-05-15T02:22:37.598Z,16.15
2017-05-15T02:25:05.916Z,23.48
2017-05-15T02:27:34.226Z,16.97
2017-05-15T02:30:03.282Z,14.62
2017-05-15T02:32:31.599Z,15.77
2017-05-15T02:35:00.653Z,14.83
2017-05-15T02:37:28.971Z,14.77
2017-05-15T02:39:58.028Z,15.27
2017-05-15T02:42:26.341Z,14.48
2017-05-15T02:44:54.657Z,17.83
2017-05-15T02:47:22.967Z,13.83
2017-05-15T02:49:51.277Z,17.27
2017-05-15T02:52:20.333Z,14.63
2017-05-15T02:54:49.006Z,14.07
2017-05-15T02:57:17.322Z,13.58
2017-05-15T02:59:45.654Z,14.93
2017-05-15T03:02:13.974Z,17.58
2017-05-15T03:04:42.290Z,14.20
2017-05-15T03:07:10.753Z,14.92
2017-05-15T03:09:39.810Z,14.83
2017-05-15T03:12:08.126Z,15.87
2017-05-15T03:14:36.436Z,15.73
2017-05-15T03:17:04.751Z,13.93
2017-05-15T03:19:33.067Z,13.42
2017-05-15T03:22:02.127Z,13.97
2017-05-15T03:24:30.849Z,13.75
2017-05-15T03:26:59.903Z,13.62
2017-05-15T03:29:28.260Z,14.85
2017-05-15T03:31:56.577Z,16.52
2017-05-15T03:34:24.898Z,14.37
2017-05-15T03:36:53.215Z,13.55
2017-05-15T03:39:24.086Z,14.67
2017-05-15T03:41:52.874Z,14.75
2017-05-15T03:44:21.193Z,14.40
2017-05-15T03:46:49.510Z,14.57
2017-05-15T03:49:17.817Z,15.55
2017-05-15T03:51:46.946Z,14.70
2017-05-15T03:54:15.349Z,14.07
2017-05-15T03:56:43.668Z,16.75
2017-05-15T03:59:11.988Z,15.05
2017-05-15T04:01:40.305Z,13.58
2017-05-15T04:04:08.622Z,14.25
2017-05-15T04:06:36.998Z,16.83
2017-05-15T04:09:06.070Z,16.70
2017-05-15T04:11:34.437Z,15.10
2017-05-15T04:14:02.753Z,13.70
2017-05-15T04:16:31.823Z,15.25
2017-05-15T04:19:00.142Z,18.17
2017-05-15T04:21:29.050Z,16.03
2017-05-15T04:23:57.409Z,15.65
2017-05-15T04:26:25.732Z,14.20
2017-05-15T04:28:54.047Z,13.90
2017-05-15T04:31:23.107Z,15.12
2017-05-15T04:33:51.486Z,15.33
2017-05-15T04:36:19.814Z,15.17
2017-05-15T04:38:48.139Z,15.22
2017-05-15T04:41:16.453Z,15.22
2017-05-15T04:43:45.515Z,16.12
2017-05-15T04:46:13.838Z,16.82
2017-05-15T04:48:42.888Z,16.03
2017-05-15T04:51:11.202Z,15.18
2017-05-15T04:53:40.702Z,13.87
2017-05-15T04:56:09.993Z,15.77
2017-05-15T04:58:38.316Z,15.82
2017-05-15T05:01:06.627Z,16.92
2017-05-15T05:03:34.941Z,16.75
2017-05-15T05:06:04.005Z,16.83
2017-05-15T05:08:32.478Z,15.70
2017-05-15T05:11:04.330Z,16.33
2017-05-15T05:13:32.887Z,15.93
2017-05-15T05:16:04.750Z,17.08
2017-05-15T05:18:33.214Z,14.35
2017-05-15T05:21:21.282Z,15.40
2017-05-15T05:24:01.530Z,15.48
2017-05-15T05:26:52.415Z,16.25
2017-05-15T05:29:43.182Z,15.98
2017-05-15T05:32:23.376Z,14.92
2017-05-15T05:34:58.315Z,15.48
2017-05-15T05:37:38.531Z,15.42
2017-05-15T05:40:23.318Z,17.43
2017-05-15T05:43:04.333Z,14.38
2017-05-15T05:45:32.654Z,15.18
2017-05-15T05:48:01.022Z,15.70
2017-05-15T05:50:29.358Z,14.77
2017-05-15T05:52:59.150Z,18.88
2017-05-15T05:55:54.279Z,17.52
2017-05-15T05:58:23.439Z,15.58
2017-05-15T06:01:13.196Z,15.75
2017-05-15T06:03:53.799Z,16.97
2017-05-15T06:06:34.690Z,15.82
2017-05-15T06:09:15.021Z,18.80
2017-05-15T06:11:55.046Z,16.85
2017-05-15T06:14:35.429Z,18.52
2017-05-15T06:17:18.594Z,21.88
2017-05-15T06:19:46.645Z,22.33
2017-05-15T06:22:26.834Z,26.67
2017-05-15T06:28:03.245Z,23.33
2017-05-15T06:30:32.237Z,18.67
2017-05-15T06:33:00.561Z,19.22
2017-05-15T06:35:29.616Z,20.77
2017-05-15T06:38:09.924Z,20.22
2017-05-15T06:41:04.946Z,23.17
2017-05-15T06:43:33.264Z,23.13
2017-05-15T06:46:01.585Z,20.33
2017-05-15T06:48:29.906Z,21.18
2017-05-15T06:50:58.226Z,20.40
2017-05-15T06:53:29.421Z,17.63
2017-05-15T06:55:57.996Z,18.67
2017-05-15T06:58:26.474Z,19.35
2017-05-15T07:00:54.853Z,18.22
2017-05-15T07:03:23.174Z,21.00
2017-05-15T07:05:51.522Z,15.98
2017-05-15T07:08:19.737Z,17.25
2017-05-15T07:10:48.058Z,17.18
2017-05-15T07:13:16.373Z,18.57
2017-05-15T07:15:44.874Z,15.85
2017-05-15T07:18:13.779Z,14.58
2017-05-15T07:20:42.838Z,12.22
2017-05-15T07:23:11.205Z,14.70
2017-05-15T07:25:39.905Z,14.07
2017-05-15T07:28:08.228Z,15.47
2017-05-15T07:30:37.295Z,15.30
2017-05-15T07:33:05.610Z,10.92
2017-05-15T07:35:33.931Z,12.07
2017-05-15T07:38:02.281Z,13.12
2017-05-15T07:40:30.587Z,8.78
2017-05-15T07:42:58.902Z,10.67
2017-05-15T07:45:27.949Z,10.77
2017-05-15T07:47:56.301Z,13.20
2017-05-15T07:50:24.621Z,12.50
2017-05-15T07:52:52.936Z,14.03
2017-05-15T07:55:22.379Z,10.25
2017-05-15T07:57:50.903Z,15.87
2017-05-15T08:00:19.990Z,12.30
2017-05-15T08:02:48.515Z,11.62
2017-05-15T08:05:16.859Z,11.53
2017-05-15T08:07:45.191Z,12.08
2017-05-15T08:10:13.501Z,14.30
2017-05-15T08:12:41.853Z,12.17
2017-05-15T08:15:10.926Z,14.45
2017-05-15T08:17:39.243Z,11.48
2017-05-15T08:20:07.557Z,12.15
2017-05-15T08:22:35.866Z,10.48
2017-05-15T08:25:04.181Z,9.92
2017-05-15T08:27:32.533Z,12.82
2017-05-15T08:30:01.598Z,12.80
2017-05-15T08:32:29.985Z,13.45
2017-05-15T08:34:58.300Z,13.12
2017-05-15T08:37:27.546Z,13.48
2017-05-15T08:39:55.858Z,14.30
2017-05-15T08:42:24.200Z,16.53
2017-05-15T08:44:52.534Z,12.40
2017-05-15T08:47:23.106Z,13.00
2017-05-15T08:49:51.421Z,19.17
2017-05-15T08:52:19.738Z,13.30
2017-05-15T08:54:48.204Z,15.73
2017-05-15T08:57:17.258Z,13.52
2017-05-15T08:59:45.586Z,13.12
2017-05-15T09:02:13.898Z,10.77
2017-05-15T09:04:42.254Z,13.95
2017-05-15T09:07:10.583Z,12.15
2017-05-15T09:09:39.589Z,11.60
2017-05-15T09:12:07.898Z,11.45
2017-05-15T09:14:36.205Z,14.07
2017-05-15T09:17:04.518Z,11.27
2017-05-15T09:19:32.837Z,12.33
2017-05-15T09:22:01.274Z,11.53
2017-05-15T09:24:29.590Z,11.98
2017-05-15T09:26:57.914Z,12.13
2017-05-15T09:29:26.228Z,12.93
2017-05-15T09:31:55.613Z,13.37
2017-05-15T09:34:23.936Z,15.25
2017-05-15T09:36:52.270Z,13.02
2017-05-15T09:39:20.591Z,14.48
2017-05-15T09:41:48.909Z,12.93
2017-05-15T09:44:17.218Z,12.27
2017-05-15T09:46:46.284Z,14.30
2017-05-15T09:49:14.607Z,13.10
2017-05-15T09:51:43.011Z,12.20
2017-05-15T09:54:12.527Z,10.12
2017-05-15T09:56:40.837Z,13.08
2017-05-15T09:59:09.157Z,11.85
2017-05-15T10:01:37.472Z,11.62
2017-05-15T10:04:05.785Z,10.68
2017-05-15T10:06:34.837Z,13.62
2017-05-15T10:09:03.182Z,9.10
2017-05-15T10:11:31.982Z,10.62
2017-05-15T10:14:00.289Z,7.62
2017-05-15T10:16:28.597Z,8.22
2017-05-15T10:18:57.650Z,11.87
2017-05-15T10:21:25.991Z,10.28
2017-05-15T10:23:55.047Z,8.43
2017-05-15T10:26:23.356Z,9.10
2017-05-15T10:28:52.758Z,6.93
2017-05-15T10:31:33.593Z,6.60
2017-05-15T10:34:02.630Z,7.37
2017-05-15T10:36:31.680Z,8.08
2017-05-15T10:38:59.990Z,8.08
2017-05-15T10:41:29.055Z,10.18
2017-05-15T10:43:57.361Z,6.98
2017-05-15T10:46:25.685Z,4.65
2017-05-15T10:48:54.742Z,7.38
2017-05-15T10:51:23.666Z,3.42
2017-05-15T10:53:52.722Z,4.92
2017-05-15T10:56:21.904Z,4.47
2017-05-15T10:58:50.213Z,8.48
2017-05-15T11:01:18.581Z,7.66
2017-05-15T11:03:46.899Z,3.43
2017-05-15T11:06:15.957Z,6.22
2017-05-15T11:08:44.473Z,3.00
2017-05-15T11:11:15.870Z,5.62
2017-05-15T11:13:44.258Z,8.13
2017-05-15T11:16:12.574Z,4.40
2017-05-15T11:18:40.895Z,8.14
2017-05-15T11:21:09.199Z,3.52
2017-05-15T11:23:37.533Z,3.88
2017-05-15T11:26:06.573Z,5.74
2017-05-15T11:28:35.026Z,5.68
2017-05-15T11:31:03.344Z,5.46
2017-05-15T11:33:31.674Z,3.30
2017-05-15T11:35:59.990Z,4.16
2017-05-15T11:38:28.521Z,3.56
2017-05-15T11:40:57.591Z,3.22
2017-05-15T11:43:25.963Z,3.56
2017-05-15T11:45:54.265Z,4.56
2017-05-15T11:48:23.314Z,3.06
2017-05-15T11:50:51.621Z,6.62
2017-05-15T11:53:19.935Z,4.04
2017-05-15T11:55:48.254Z,3.76
2017-05-15T11:58:16.928Z,5.92
2017-05-15T12:00:45.977Z,2.40
2017-05-15T12:03:15.033Z,3.88
2017-05-15T12:05:43.346Z,3.94
2017-05-15T12:08:12.399Z,5.82
2017-05-15T12:10:40.709Z,2.50
2017-05-15T12:13:09.362Z,2.26
2017-05-15T12:15:37.673Z,5.08
2017-05-15T12:18:06.003Z,3.52
2017-05-15T12:20:34.308Z,2.92
2017-05-15T12:23:02.613Z,2.52
2017-05-15T12:25:31.669Z,2.66
2017-05-15T12:28:00.026Z,2.24
2017-05-15T12:30:28.391Z,6.48
2017-05-15T12:32:56.750Z,4.28
2017-05-15T12:35:25.818Z,2.58
2017-05-15T12:37:54.419Z,3.40
2017-05-15T12:40:22.734Z,4.22
2017-05-15T12:42:51.052Z,3.76
2017-05-15T12:45:19.361Z,3.32
2017-05-15T12:47:48.430Z,4.18
2017-05-15T12:50:16.742Z,4.66
2017-05-15T12:52:45.805Z,7.68
2017-05-15T12:55:14.110Z,3.74
2017-05-15T12:57:43.570Z,6.24
2017-05-15T13:00:11.883Z,5.00
2017-05-15T13:02:40.198Z,5.50
2017-05-15T13:05:08.508Z,3.60
2017-05-15T13:07:36.818Z,5.44
2017-05-15T13:10:05.133Z,5.78
2017-05-15T13:12:34.086Z,5.00
2017-05-15T13:15:02.404Z,5.62
2017-05-15T13:17:30.707Z,4.80
2017-05-15T13:19:59.017Z,4.38
2017-05-15T13:22:27.330Z,4.78
2017-05-15T13:24:55.681Z,6.92
2017-05-15T13:27:23.989Z,4.66
2017-05-15T13:29:52.522Z,3.80
2017-05-15T13:32:20.837Z,4.78
2017-05-15T13:34:49.902Z,4.40
2017-05-15T13:37:18.213Z,4.02
2017-05-15T13:39:46.526Z,4.10
2017-05-15T13:42:14.837Z,3.94
2017-05-15T13:44:43.149Z,4.74
2017-05-15T13:47:11.454Z,4.52
2017-05-15T13:49:39.762Z,4.40
2017-05-15T13:52:08.078Z,4.50
2017-05-15T13:54:36.390Z,2.94
2017-05-15T13:57:04.713Z,4.52
2017-05-15T13:59:33.687Z,2.70
2017-05-15T14:02:02.009Z,3.44
2017-05-15T14:04:30.624Z,1.90
2017-05-15T14:06:58.941Z,2.48
2017-05-15T14:09:27.249Z,3.34
2017-05-15T14:11:56.297Z,3.00
2017-05-15T14:14:24.605Z,4.70
2017-05-15T14:16:53.655Z,3.08
2017-05-15T14:19:22.346Z,2.90
2017-05-15T14:21:51.091Z,3.40
2017-05-15T14:24:20.139Z,3.02
2017-05-15T14:26:48.492Z,4.04
2017-05-15T14:29:16.785Z,4.80
2017-05-15T14:31:45.096Z,2.76
2017-05-15T14:34:13.402Z,3.60
2017-05-15T14:36:41.711Z,2.06
2017-05-15T14:39:10.029Z,4.40
2017-05-15T14:41:38.337Z,2.60
2017-05-15T14:44:06.686Z,2.56
2017-05-15T14:46:35.053Z,3.06
2017-05-15T14:49:03.361Z,2.94
2017-05-15T14:51:32.415Z,3.50
2017-05-15T14:54:00.719Z,2.30
2017-05-15T14:56:29.033Z,4.66
2017-05-15T14:58:57.490Z,2.68
2017-05-15T15:01:26.540Z,2.24
2017-05-15T15:03:54.850Z,3.00
2017-05-15T15:06:23.163Z,4.58
2017-05-15T15:08:51.473Z,3.32
2017-05-15T15:11:19.780Z,2.78
2017-05-15T15:13:48.086Z,4.74
2017-05-15T15:16:17.665Z,4.60
2017-05-15T15:18:46.006Z,3.92
2017-05-15T15:21:14.309Z,4.52
2017-05-15T15:23:42.743Z,5.34
2017-05-15T15:26:11.353Z,4.02
2017-05-15T15:28:39.662Z,4.44
2017-05-15T15:31:08.082Z,2.90
2017-05-15T15:33:36.390Z,4.62
2017-05-15T15:36:04.750Z,2.70
2017-05-15T15:38:33.065Z,4.20
2017-05-15T15:41:01.375Z,4.12
2017-05-15T15:43:30.474Z,3.52
2017-05-15T15:45:59.518Z,3.46
2017-05-15T15:48:27.831Z,4.22
2017-05-15T15:50:56.369Z,5.42
2017-05-15T15:53:24.681Z,2.72
2017-05-15T15:55:52.985Z,3.86
2017-05-15T15:58:22.088Z,3.74
2017-05-15T16:00:51.140Z,4.66
2017-05-15T16:03:19.905Z,4.06
2017-05-15T16:05:48.218Z,3.16
2017-05-15T16:08:16.531Z,5.58
2017-05-15T16:10:46.521Z,2.68
2017-05-15T16:13:14.832Z,5.12
2017-05-15T16:15:43.141Z,3.16
2017-05-15T16:18:11.491Z,4.02
2017-05-15T16:20:39.806Z,5.56
2017-05-15T16:23:08.438Z,3.20
2017-05-15T16:25:37.479Z,3.40
2017-05-15T16:28:05.994Z,3.76
2017-05-15T16:30:37.342Z,2.84
2017-05-15T16:33:05.657Z,7.56
2017-05-15T16:35:33.974Z,3.30
2017-05-15T16:38:02.354Z,7.64
2017-05-15T16:40:30.663Z,4.12
2017-05-15T16:43:00.158Z,3.92
2017-05-15T16:45:28.461Z,3.02
2017-05-15T16:47:57.501Z,3.28
2017-05-15T16:50:26.454Z,5.44
2017-05-15T16:52:55.503Z,6.18
2017-05-15T16:55:23.814Z,4.66
2017-05-15T16:57:52.911Z,2.60
2017-05-15T17:00:22.075Z,2.20
2017-05-15T17:02:51.275Z,2.68
2017-05-15T17:05:19.658Z,4.34
2017-05-15T17:07:48.566Z,3.88
2017-05-15T17:10:16.882Z,4.78
2017-05-15T17:12:47.421Z,2.74
2017-05-15T17:15:15.861Z,3.16
2017-05-15T17:17:44.917Z,4.92
2017-05-15T17:20:13.282Z,1.72
2017-05-15T17:22:41.586Z,5.70
2017-05-15T17:25:14.110Z,2.78
2017-05-15T17:27:42.630Z,2.88
2017-05-15T17:30:10.952Z,3.06
2017-05-15T17:32:40.054Z,3.22
2017-05-15T17:35:09.114Z,3.66
2017-05-15T17:37:37.465Z,3.26
2017-05-15T17:42:26.076Z,2.86
2017-05-15T17:44:55.038Z,4.46
2017-05-15T17:47:23.350Z,3.22
2017-05-15T17:49:51.674Z,3.66
2017-05-15T17:52:19.986Z,4.28
2017-05-15T17:54:48.317Z,4.06
2017-05-15T17:57:16.637Z,3.22
2017-05-15T17:59:44.949Z,3.42
2017-05-15T18:02:14.012Z,3.98
2017-05-15T18:04:42.359Z,4.74
2017-05-15T18:07:10.675Z,3.12
2017-05-15T18:09:38.983Z,1.96
2017-05-15T18:12:07.301Z,2.86
2017-05-15T18:14:35.668Z,2.98
2017-05-15T18:17:03.985Z,2.06
2017-05-15T18:19:32.299Z,2.48
2017-05-15T18:22:01.346Z,3.18
2017-05-15T18:24:29.674Z,3.43
2017-05-15T18:26:58.731Z,3.60
2017-05-15T18:29:27.756Z,1.50
2017-05-15T18:31:56.802Z,2.36
2017-05-15T18:34:25.149Z,3.62
2017-05-15T18:36:53.612Z,2.18
2017-05-15T18:39:22.670Z,2.62
2017-05-15T18:41:50.985Z,2.72
2017-05-15T18:44:20.037Z,2.48
2017-05-15T18:46:48.359Z,1.85
2017-05-15T18:49:17.411Z,3.48
2017-05-15T18:51:46.032Z,2.47
2017-05-15T18:54:15.085Z,2.25
2017-05-15T18:56:43.471Z,1.35
2017-05-15T18:59:12.192Z,4.12
2017-05-15T19:01:40.511Z,3.50
2017-05-15T19:04:08.842Z,2.88
2017-05-15T19:06:37.373Z,3.13
2017-05-15T19:09:07.090Z,2.65
2017-05-15T19:11:35.397Z,2.20
2017-05-15T19:14:03.722Z,2.35
2017-05-15T19:16:32.041Z,1.80
2017-05-15T19:19:00.357Z,2.78
2017-05-15T19:21:29.977Z,1.93
2017-05-15T19:24:00.288Z,2.63
2017-05-15T19:26:28.602Z,2.55
2017-05-15T19:28:56.905Z,3.03
2017-05-15T19:31:25.206Z,2.12
2017-05-15T19:33:53.906Z,2.92
2017-05-15T19:36:22.215Z,1.90
2017-05-15T19:38:50.530Z,2.50
2017-05-15T19:41:18.837Z,3.80
2017-05-15T19:43:47.142Z,4.13
2017-05-15T19:46:15.454Z,2.92
2017-05-15T19:48:43.776Z,1.90
2017-05-15T19:51:12.131Z,2.98
2017-05-15T19:53:40.428Z,4.65
2017-05-15T19:56:08.781Z,4.33
2017-05-15T19:58:37.090Z,2.35
2017-05-15T20:01:06.117Z,3.25
2017-05-15T20:03:34.421Z,2.80
2017-05-15T20:06:02.731Z,3.17
2017-05-15T20:08:31.034Z,3.00
2017-05-15T20:11:01.812Z,1.98
2017-05-15T20:13:30.126Z,4.50
2017-05-15T20:15:58.434Z,2.17
2017-05-15T20:18:26.753Z,2.95
2017-05-15T20:20:55.061Z,2.15
2017-05-15T20:23:23.376Z,2.05
2017-05-15T20:25:51.694Z,3.72
2017-05-15T20:28:20.006Z,2.57
2017-05-15T20:30:49.503Z,1.70
2017-05-15T20:33:17.821Z,2.88
2017-05-15T20:35:46.126Z,5.72
2017-05-15T20:38:14.455Z,2.82
2017-05-15T20:40:43.501Z,3.58
2017-05-15T20:43:12.115Z,3.10
2017-05-15T20:45:40.428Z,2.23
2017-05-15T20:48:08.749Z,1.88
2017-05-15T20:50:37.058Z,1.63
2017-05-15T20:53:06.155Z,3.17
2017-05-15T20:55:34.615Z,2.20
2017-05-15T20:58:02.925Z,3.08
2017-05-15T21:00:31.976Z,2.32
2017-05-15T21:03:00.281Z,2.47
2017-05-15T21:05:30.193Z,2.80
2017-05-15T21:07:58.506Z,3.23
2017-05-15T21:10:27.103Z,5.07
2017-05-15T21:12:55.410Z,2.88
2017-05-15T21:15:23.717Z,3.12
2017-05-15T21:17:52.817Z,2.25
2017-05-15T21:20:21.861Z,3.50
2017-05-15T21:22:50.172Z,2.65
2017-05-15T21:25:18.479Z,3.90
2017-05-15T21:27:47.529Z,4.33
2017-05-15T21:30:17.318Z,5.15
2017-05-15T21:32:45.627Z,3.23
2017-05-15T21:35:13.934Z,3.45
2017-05-15T21:37:42.984Z,5.27
2017-05-15T21:40:11.290Z,6.97
2017-05-15T21:42:39.606Z,5.45
2017-05-15T21:45:07.930Z,2.17
2017-05-15T21:47:36.259Z,2.92
2017-05-15T21:50:04.607Z,3.80
2017-05-15T21:52:32.918Z,4.17
2017-05-15T21:55:01.227Z,2.92
2017-05-15T21:57:29.534Z,2.22
2017-05-15T21:59:58.046Z,2.37
2017-05-15T22:02:27.086Z,9.22
2017-05-15T22:04:55.393Z,4.05
2017-05-15T22:07:23.705Z,5.22
2017-05-15T22:09:52.417Z,2.52
2017-05-15T22:12:20.894Z,5.55
2017-05-15T22:14:49.198Z,1.97
2017-05-15T22:17:17.510Z,2.05
2017-05-15T22:19:46.555Z,3.15
2017-05-15T22:22:14.862Z,3.93
2017-05-15T22:24:43.176Z,2.72
2017-05-15T22:27:11.483Z,2.62
2017-05-15T22:29:40.167Z,2.87
2017-05-15T22:32:08.477Z,4.13
2017-05-15T22:34:36.786Z,2.30
2017-05-15T22:37:05.829Z,3.27
2017-05-15T22:39:34.546Z,4.70
2017-05-15T22:42:02.862Z,2.82
2017-05-15T22:44:31.172Z,4.42
2017-05-15T22:46:59.481Z,8.70
2017-05-15T22:49:27.786Z,2.45
2017-05-15T22:51:56.102Z,2.50
2017-05-15T22:54:24.415Z,3.02
2017-05-15T22:56:52.885Z,3.03
2017-05-15T22:59:21.193Z,3.35
2017-05-15T23:01:50.249Z,2.87
2017-05-15T23:04:18.593Z,4.08
2017-05-15T23:06:46.899Z,3.47
2017-05-15T23:09:15.210Z,3.75
2017-05-15T23:11:43.517Z,2.48
2017-05-15T23:14:11.822Z,3.72
2017-05-15T23:16:40.125Z,3.55
2017-05-15T23:19:08.430Z,4.15
2017-05-15T23:21:37.478Z,3.68
2017-05-15T23:24:05.961Z,3.92
2017-05-15T23:26:34.266Z,2.20
2017-05-15T23:29:02.570Z,3.95
2017-05-15T23:31:31.798Z,3.48
2017-05-15T23:34:00.104Z,2.25
2017-05-15T23:36:28.410Z,3.30
2017-05-15T23:38:57.449Z,2.40
2017-05-15T23:41:25.751Z,4.83
2017-05-15T23:43:54.057Z,5.12
2017-05-15T23:46:22.366Z,2.80
2017-05-15T23:48:50.675Z,2.25
2017-05-15T23:51:19.001Z,2.50
2017-05-15T23:53:48.101Z,3.60
2017-05-15T23:56:17.146Z,3.35
2017-05-15T23:58:46.042Z,4.25
